sensor_id;sensor_type;location;lat;lon;timestamp;pressure;altitude;pressure_sealevel;temperature;humidity
56241;BME280;42155;53.096;23.226;2022-10-16T00:00:38;100110.97;;;14.11;73.44
56241;BME280;42155;53.096;23.226;2022-10-16T00:02:39;100113.63;;;14.11;73.20
56241;BME280;42155;53.096;23.226;2022-10-16T00:04:39;100121.81;;;14.10;73.59
56241;BME280;42155;53.096;23.226;2022-10-16T00:06:39;100112.25;;;14.07;73.69
56241;BME280;42155;53.096;23.226;2022-10-16T00:08:40;100119.56;;;14.05;73.49
56241;BME280;42155;53.096;23.226;2022-10-16T00:10:41;100110.16;;;14.01;73.42
56241;BME280;42155;53.096;23.226;2022-10-16T00:12:41;100113.34;;;14.05;73.37
56241;BME280;42155;53.096;23.226;2022-10-16T00:14:41;100116.16;;;14.03;73.74
56241;BME280;42155;53.096;23.226;2022-10-16T00:16:42;100125.16;;;14.02;73.52
56241;BME280;42155;53.096;23.226;2022-10-16T00:18:43;100093.44;;;13.80;73.75
56241;BME280;42155;53.096;23.226;2022-10-16T00:20:43;100116.44;;;14.00;74.06
56241;BME280;42155;53.096;23.226;2022-10-16T00:22:43;100115.59;;;13.99;73.57
56241;BME280;42155;53.096;23.226;2022-10-16T00:24:44;100094.84;;;13.84;73.62
56241;BME280;42155;53.096;23.226;2022-10-16T00:26:44;100113.09;;;13.98;73.46
56241;BME280;42155;53.096;23.226;2022-10-16T00:28:46;100116.59;;;13.98;73.96
56241;BME280;42155;53.096;23.226;2022-10-16T00:30:46;100118.44;;;13.98;73.59
56241;BME280;42155;53.096;23.226;2022-10-16T00:32:47;100122.09;;;13.97;73.59
56241;BME280;42155;53.096;23.226;2022-10-16T00:34:47;100122.19;;;13.95;73.72
56241;BME280;42155;53.096;23.226;2022-10-16T00:36:47;100127.69;;;13.94;73.90
56241;BME280;42155;53.096;23.226;2022-10-16T00:38:53;100132.19;;;13.93;74.11
56241;BME280;42155;53.096;23.226;2022-10-16T00:40:54;100135.00;;;13.92;73.89
56241;BME280;42155;53.096;23.226;2022-10-16T00:42:54;100130.50;;;13.92;73.81
56241;BME280;42155;53.096;23.226;2022-10-16T00:44:56;100135.97;;;13.91;73.98
56241;BME280;42155;53.096;23.226;2022-10-16T00:46:57;100135.00;;;13.92;73.71
56241;BME280;42155;53.096;23.226;2022-10-16T00:49:06;100142.03;;;13.93;73.63
56241;BME280;42155;53.096;23.226;2022-10-16T00:51:08;100134.16;;;13.91;73.72
56241;BME280;42155;53.096;23.226;2022-10-16T00:53:09;100125.03;;;13.84;73.92
56241;BME280;42155;53.096;23.226;2022-10-16T00:55:10;100135.00;;;13.92;73.71
56241;BME280;42155;53.096;23.226;2022-10-16T00:57:11;100142.88;;;13.93;73.76
56241;BME280;42155;53.096;23.226;2022-10-16T00:59:36;100145.38;;;13.95;73.65
56241;BME280;42155;53.096;23.226;2022-10-16T01:01:35;100146.53;;;13.92;73.65
56241;BME280;42155;53.096;23.226;2022-10-16T01:03:36;100129.25;;;13.87;73.40
56241;BME280;42155;53.096;23.226;2022-10-16T01:05:47;100144.69;;;13.93;73.66
56241;BME280;42155;53.096;23.226;2022-10-16T01:08:22;100148.34;;;13.92;73.49
56241;BME280;42155;53.096;23.226;2022-10-16T01:10:53;100154.63;;;13.91;73.57
56241;BME280;42155;53.096;23.226;2022-10-16T01:13:05;100138.22;;;13.76;73.29
56241;BME280;42155;53.096;23.226;2022-10-16T01:15:17;100149.31;;;13.81;73.81
56241;BME280;42155;53.096;23.226;2022-10-16T01:21:36;100163.22;;;13.85;73.48
56241;BME280;42155;53.096;23.226;2022-10-16T01:26:30;100159.84;;;13.83;73.92
56241;BME280;42155;53.096;23.226;2022-10-16T01:28:43;100162.63;;;13.81;73.68
56241;BME280;42155;53.096;23.226;2022-10-16T01:30:47;100160.38;;;13.76;73.77
56241;BME280;42155;53.096;23.226;2022-10-16T01:32:54;100164.47;;;13.81;73.32
56241;BME280;42155;53.096;23.226;2022-10-16T01:35:04;100161.81;;;13.81;73.78
56241;BME280;42155;53.096;23.226;2022-10-16T01:37:11;100168.97;;;13.80;73.55
56241;BME280;42155;53.096;23.226;2022-10-16T01:39:13;100154.94;;;13.68;73.63
56241;BME280;42155;53.096;23.226;2022-10-16T01:41:18;100173.47;;;13.80;73.44
56241;BME280;42155;53.096;23.226;2022-10-16T01:43:27;100155.75;;;13.59;73.58
56241;BME280;42155;53.096;23.226;2022-10-16T01:45:32;100171.91;;;13.77;73.78
56241;BME280;42155;53.096;23.226;2022-10-16T01:47:35;100173.72;;;13.76;73.62
56241;BME280;42155;53.096;23.226;2022-10-16T01:49:37;100183.44;;;13.78;73.49
56241;BME280;42155;53.096;23.226;2022-10-16T01:51:38;100191.44;;;13.78;73.73
56241;BME280;42155;53.096;23.226;2022-10-16T01:53:41;100166.13;;;13.62;73.61
56241;BME280;42155;53.096;23.226;2022-10-16T01:55:46;100185.25;;;13.77;73.51
56241;BME280;42155;53.096;23.226;2022-10-16T01:57:49;100187.06;;;13.76;73.54
56241;BME280;42155;53.096;23.226;2022-10-16T01:59:54;100183.44;;;13.78;73.94
56241;BME280;42155;53.096;23.226;2022-10-16T02:01:59;100181.72;;;13.76;73.45
56241;BME280;42155;53.096;23.226;2022-10-16T02:04:04;100182.72;;;13.75;73.48
56241;BME280;42155;53.096;23.226;2022-10-16T02:06:08;100176.13;;;13.70;73.46
56241;BME280;42155;53.096;23.226;2022-10-16T02:08:08;100181.59;;;13.68;73.87
56241;BME280;42155;53.096;23.226;2022-10-16T02:10:09;100184.69;;;13.73;73.84
56241;BME280;42155;53.096;23.226;2022-10-16T02:12:15;100186.38;;;13.74;73.45
56241;BME280;42155;53.096;23.226;2022-10-16T02:14:19;100196.19;;;13.74;73.69
56241;BME280;42155;53.096;23.226;2022-10-16T02:16:26;100169.22;;;13.58;73.52
56241;BME280;42155;53.096;23.226;2022-10-16T02:18:32;100179.75;;;13.59;73.79
56241;BME280;42155;53.096;23.226;2022-10-16T02:20:36;100198.03;;;13.73;73.60
56241;BME280;42155;53.096;23.226;2022-10-16T02:22:45;100170.06;;;13.58;73.87
56241;BME280;42155;53.096;23.226;2022-10-16T02:25:05;100189.31;;;13.71;73.89
56241;BME280;42155;53.096;23.226;2022-10-16T02:27:11;100191.97;;;13.71;73.86
56241;BME280;42155;53.096;23.226;2022-10-16T02:29:16;100192.53;;;13.65;73.48
56241;BME280;42155;53.096;23.226;2022-10-16T02:31:23;100166.97;;;13.53;73.61
56241;BME280;42155;53.096;23.226;2022-10-16T02:33:26;100187.19;;;13.65;73.97
56241;BME280;42155;53.096;23.226;2022-10-16T02:35:28;100181.88;;;13.65;73.79
56241;BME280;42155;53.096;23.226;2022-10-16T02:37:30;100178.47;;;13.63;73.82
56241;BME280;42155;53.096;23.226;2022-10-16T02:39:32;100183.81;;;13.63;73.63
56241;BME280;42155;53.096;23.226;2022-10-16T02:41:33;100180.44;;;13.61;73.65
56241;BME280;42155;53.096;23.226;2022-10-16T02:43:33;100186.06;;;13.58;73.70
56241;BME280;42155;53.096;23.226;2022-10-16T02:45:34;100179.03;;;13.57;74.10
56241;BME280;42155;53.096;23.226;2022-10-16T02:47:34;100181.00;;;13.55;73.71
56241;BME280;42155;53.096;23.226;2022-10-16T02:49:35;100177.50;;;13.55;73.88
56241;BME280;42155;53.096;23.226;2022-10-16T02:51:35;100182.84;;;13.55;73.92
56241;BME280;42155;53.096;23.226;2022-10-16T02:53:35;100185.63;;;13.53;74.12
56241;BME280;42155;53.096;23.226;2022-10-16T02:55:36;100177.91;;;13.50;73.89
56241;BME280;42155;53.096;23.226;2022-10-16T02:57:36;100177.34;;;13.46;74.36
56241;BME280;42155;53.096;23.226;2022-10-16T02:59:37;100184.50;;;13.46;74.17
56241;BME280;42155;53.096;23.226;2022-10-16T03:01:37;100172.41;;;13.42;74.27
56241;BME280;42155;53.096;23.226;2022-10-16T03:03:38;100166.66;;;13.37;74.27
56241;BME280;42155;53.096;23.226;2022-10-16T03:05:38;100179.25;;;13.35;74.61
56241;BME280;42155;53.096;23.226;2022-10-16T03:07:39;100181.63;;;13.28;74.20
56241;BME280;42155;53.096;23.226;2022-10-16T03:09:40;100180.06;;;13.25;74.23
56241;BME280;42155;53.096;23.226;2022-10-16T03:11:40;100183.94;;;13.21;74.29
56241;BME280;42155;53.096;23.226;2022-10-16T03:13:41;100180.16;;;13.14;74.48
56241;BME280;42155;53.096;23.226;2022-10-16T03:15:41;100186.19;;;13.16;74.27
56241;BME280;42155;53.096;23.226;2022-10-16T03:17:42;100195.56;;;13.11;75.14
56241;BME280;42155;53.096;23.226;2022-10-16T03:19:42;100194.03;;;13.08;74.90
56241;BME280;42155;53.096;23.226;2022-10-16T03:21:43;100197.63;;;13.07;75.02
56241;BME280;42155;53.096;23.226;2022-10-16T03:25:46;100188.22;;;13.03;75.00
56241;BME280;42155;53.096;23.226;2022-10-16T03:27:46;100187.94;;;12.96;75.13
56241;BME280;42155;53.096;23.226;2022-10-16T03:29:46;100177.94;;;12.89;74.61
56241;BME280;42155;53.096;23.226;2022-10-16T03:31:47;100193.50;;;12.93;74.94
56241;BME280;42155;53.096;23.226;2022-10-16T03:33:47;100192.66;;;12.93;75.42
56241;BME280;42155;53.096;23.226;2022-10-16T03:35:53;100191.97;;;12.91;75.49
56241;BME280;42155;53.096;23.226;2022-10-16T03:37:54;100189.56;;;12.88;75.23
56241;BME280;42155;53.096;23.226;2022-10-16T03:39:54;100190.78;;;12.84;75.48
56241;BME280;42155;53.096;23.226;2022-10-16T03:41:54;100199.06;;;12.81;75.94
56241;BME280;42155;53.096;23.226;2022-10-16T03:43:55;100199.91;;;12.81;75.52
56241;BME280;42155;53.096;23.226;2022-10-16T03:45:55;100208.00;;;12.80;75.58
56241;BME280;42155;53.096;23.226;2022-10-16T03:47:55;100204.50;;;12.79;75.59
56241;BME280;42155;53.096;23.226;2022-10-16T03:49:56;100182.25;;;12.59;75.57
56241;BME280;42155;53.096;23.226;2022-10-16T03:51:56;100197.25;;;12.81;75.76
56241;BME280;42155;53.096;23.226;2022-10-16T03:53:56;100206.91;;;12.82;75.72
56241;BME280;42155;53.096;23.226;2022-10-16T03:55:57;100198.94;;;12.82;75.43
56241;BME280;42155;53.096;23.226;2022-10-16T03:57:57;100184.13;;;12.68;75.44
56241;BME280;42155;53.096;23.226;2022-10-16T03:59:58;100199.47;;;12.76;75.91
56241;BME280;42155;53.096;23.226;2022-10-16T04:01:58;100202.25;;;12.74;76.11
56241;BME280;42155;53.096;23.226;2022-10-16T04:03:58;100187.88;;;12.66;75.93
56241;BME280;42155;53.096;23.226;2022-10-16T04:05:59;100188.19;;;12.63;75.87
56241;BME280;42155;53.096;23.226;2022-10-16T04:07:59;100201.53;;;12.72;76.20
56241;BME280;42155;53.096;23.226;2022-10-16T04:09:59;100212.06;;;12.74;75.72
56241;BME280;42155;53.096;23.226;2022-10-16T04:12:00;100191.69;;;12.63;75.82
56241;BME280;42155;53.096;23.226;2022-10-16T04:14:00;100213.63;;;12.77;75.64
56241;BME280;42155;53.096;23.226;2022-10-16T04:16:00;100224.28;;;12.77;75.69
56241;BME280;42155;53.096;23.226;2022-10-16T04:18:01;100192.22;;;12.57;75.73
56241;BME280;42155;53.096;23.226;2022-10-16T04:20:01;100217.25;;;12.75;75.85
56241;BME280;42155;53.096;23.226;2022-10-16T04:22:02;100207.66;;;12.63;75.73
56241;BME280;42155;53.096;23.226;2022-10-16T04:24:03;100224.28;;;12.77;75.73
56241;BME280;42155;53.096;23.226;2022-10-16T04:26:03;100216.28;;;12.77;76.01
56241;BME280;42155;53.096;23.226;2022-10-16T04:28:03;100213.63;;;12.77;76.52
56241;BME280;42155;53.096;23.226;2022-10-16T04:30:04;100215.16;;;12.79;76.31
56241;BME280;42155;53.096;23.226;2022-10-16T04:32:05;100218.66;;;12.80;76.18
56241;BME280;42155;53.096;23.226;2022-10-16T04:34:05;100220.50;;;12.79;75.82
56241;BME280;42155;53.096;23.226;2022-10-16T04:36:06;100222.31;;;12.79;75.80
56241;BME280;42155;53.096;23.226;2022-10-16T04:38:06;100221.63;;;12.77;75.92
56241;BME280;42155;53.096;23.226;2022-10-16T04:40:07;100216.28;;;12.77;75.67
56241;BME280;42155;53.096;23.226;2022-10-16T04:42:07;100220.78;;;12.76;76.34
56241;BME280;42155;53.096;23.226;2022-10-16T04:44:07;100217.53;;;12.72;76.20
56241;BME280;42155;53.096;23.226;2022-10-16T04:46:08;100215.09;;;12.69;76.19
56241;BME280;42155;53.096;23.226;2022-10-16T04:48:08;100224.06;;;12.68;75.84
56241;BME280;42155;53.096;23.226;2022-10-16T04:50:08;100212.72;;;12.66;76.03
56241;BME280;42155;53.096;23.226;2022-10-16T04:52:09;100185.00;;;12.48;75.84
56241;BME280;42155;53.096;23.226;2022-10-16T04:54:09;100221.81;;;12.64;76.37
56241;BME280;42155;53.096;23.226;2022-10-16T04:56:10;100200.69;;;12.51;76.05
56241;BME280;42155;53.096;23.226;2022-10-16T04:58:10;100216.34;;;12.65;76.21
56241;BME280;42155;53.096;23.226;2022-10-16T05:00:11;100221.66;;;12.65;76.23
56241;BME280;42155;53.096;23.226;2022-10-16T05:02:11;100197.59;;;12.46;76.17
56241;BME280;42155;53.096;23.226;2022-10-16T05:04:12;100237.78;;;12.64;76.10
56241;BME280;42155;53.096;23.226;2022-10-16T05:06:12;100243.09;;;12.64;76.09
56241;BME280;42155;53.096;23.226;2022-10-16T05:08:14;100240.44;;;12.64;76.04
56241;BME280;42155;53.096;23.226;2022-10-16T05:10:15;100242.97;;;12.65;76.38
56241;BME280;42155;53.096;23.226;2022-10-16T05:12:15;100214.97;;;12.50;76.42
56241;BME280;42155;53.096;23.226;2022-10-16T05:14:16;100240.06;;;12.68;76.29
56241;BME280;42155;53.096;23.226;2022-10-16T05:16:17;100250.31;;;12.73;76.03
56241;BME280;42155;53.096;23.226;2022-10-16T05:18:17;100260.81;;;12.74;75.98
56241;BME280;42155;53.096;23.226;2022-10-16T05:20:17;100249.19;;;12.75;76.03
56241;BME280;42155;53.096;23.226;2022-10-16T05:22:18;100248.94;;;12.79;75.81
56241;BME280;42155;53.096;23.226;2022-10-16T05:24:19;100225.75;;;12.69;75.70
56241;BME280;42155;53.096;23.226;2022-10-16T05:26:19;100227.28;;;12.93;74.99
56241;BME280;42155;53.096;23.226;2022-10-16T05:28:19;100249.72;;;13.82;73.35
56241;BME280;42155;53.096;23.226;2022-10-16T05:30:20;100256.94;;;14.30;71.78
56241;BME280;42155;53.096;23.226;2022-10-16T05:32:20;100223.47;;;13.97;71.66
56241;BME280;42155;53.096;23.226;2022-10-16T05:34:21;100253.22;;;13.83;72.51
56241;BME280;42155;53.096;23.226;2022-10-16T05:36:21;100261.63;;;13.68;72.72
56241;BME280;42155;53.096;23.226;2022-10-16T05:38:22;100264.91;;;13.51;73.51
56241;BME280;42155;53.096;23.226;2022-10-16T05:40:22;100269.38;;;13.41;73.91
56241;BME280;42155;53.096;23.226;2022-10-16T05:42:23;100203.06;;;12.96;73.88
56241;BME280;42155;53.096;23.226;2022-10-16T05:44:23;100257.25;;;13.27;74.16
56241;BME280;42155;53.096;23.226;2022-10-16T05:46:24;100233.69;;;13.11;73.87
56241;BME280;42155;53.096;23.226;2022-10-16T05:48:25;100272.56;;;13.35;73.74
56241;BME280;42155;53.096;23.226;2022-10-16T05:50:26;100265.41;;;13.35;74.01
56241;BME280;42155;53.096;23.226;2022-10-16T05:52:27;100259.63;;;13.30;73.48
56241;BME280;42155;53.096;23.226;2022-10-16T05:54:27;100241.28;;;13.16;73.87
56241;BME280;42155;53.096;23.226;2022-10-16T05:56:28;100258.34;;;13.24;73.65
56241;BME280;42155;53.096;23.226;2022-10-16T05:58:30;100269.22;;;13.21;73.61
56241;BME280;42155;53.096;23.226;2022-10-16T06:00:31;100266.09;;;13.28;73.49
56241;BME280;42155;53.096;23.226;2022-10-16T06:02:32;100269.44;;;13.30;73.94
56241;BME280;42155;53.096;23.226;2022-10-16T06:04:32;100255.28;;;13.29;73.50
56241;BME280;42155;53.096;23.226;2022-10-16T06:06:33;100277.28;;;13.62;72.96
56241;BME280;42155;53.096;23.226;2022-10-16T06:08:33;100291.25;;;13.85;72.27
56241;BME280;42155;53.096;23.226;2022-10-16T06:10:33;100241.81;;;13.81;71.85
56241;BME280;42155;53.096;23.226;2022-10-16T06:12:34;100285.88;;;14.35;71.46
56241;BME280;42155;53.096;23.226;2022-10-16T06:14:34;100289.41;;;14.55;70.39
56241;BME280;42155;53.096;23.226;2022-10-16T06:16:36;100299.81;;;14.67;70.23
56241;BME280;42155;53.096;23.226;2022-10-16T06:18:36;100304.16;;;14.88;69.81
56241;BME280;42155;53.096;23.226;2022-10-16T06:20:37;100311.72;;;15.12;69.18
56241;BME280;42155;53.096;23.226;2022-10-16T06:22:37;100307.03;;;15.23;68.37
56241;BME280;42155;53.096;23.226;2022-10-16T06:24:38;100268.53;;;15.07;68.15
56241;BME280;42155;53.096;23.226;2022-10-16T06:26:38;100305.50;;;15.31;68.13
56241;BME280;42155;53.096;23.226;2022-10-16T06:28:39;100305.13;;;15.43;67.70
56241;BME280;42155;53.096;23.226;2022-10-16T06:30:40;100310.56;;;15.61;67.33
56241;BME280;42155;53.096;23.226;2022-10-16T06:32:40;100307.97;;;15.79;66.76
56241;BME280;42155;53.096;23.226;2022-10-16T06:34:41;100198.31;;;15.14;66.24
56241;BME280;42155;53.096;23.226;2022-10-16T06:36:41;100309.66;;;15.80;66.01
56241;BME280;42155;53.096;23.226;2022-10-16T06:38:42;100319.72;;;15.68;66.46
56241;BME280;42155;53.096;23.226;2022-10-16T06:40:43;100311.31;;;15.53;66.47
56241;BME280;42155;53.096;23.226;2022-10-16T06:42:44;100321.50;;;15.40;67.06
56241;BME280;42155;53.096;23.226;2022-10-16T06:44:44;100325.47;;;15.26;67.40
56241;BME280;42155;53.096;23.226;2022-10-16T06:46:45;100322.84;;;15.07;67.42
56241;BME280;42155;53.096;23.226;2022-10-16T06:48:45;100310.78;;;14.84;67.69
56241;BME280;42155;53.096;23.226;2022-10-16T06:51:15;100312.19;;;14.68;68.06
56241;BME280;42155;53.096;23.226;2022-10-16T06:53:16;100330.03;;;14.68;68.53
56241;BME280;42155;53.096;23.226;2022-10-16T06:55:17;100329.06;;;14.59;68.85
56241;BME280;42155;53.096;23.226;2022-10-16T06:57:17;100339.31;;;14.54;69.32
56241;BME280;42155;53.096;23.226;2022-10-16T06:59:18;100341.25;;;14.42;69.21
56241;BME280;42155;53.096;23.226;2022-10-16T07:01:21;100340.69;;;14.29;69.60
56241;BME280;42155;53.096;23.226;2022-10-16T07:03:22;100340.50;;;14.21;70.00
56241;BME280;42155;53.096;23.226;2022-10-16T07:05:22;100348.25;;;14.14;70.16
56241;BME280;42155;53.096;23.226;2022-10-16T07:07:23;100359.44;;;14.08;70.27
56241;BME280;42155;53.096;23.226;2022-10-16T07:09:23;100362.50;;;14.04;70.30
56241;BME280;42155;53.096;23.226;2022-10-16T07:11:24;100367.28;;;14.00;70.74
56241;BME280;42155;53.096;23.226;2022-10-16T07:13:24;100367.28;;;14.00;70.49
56241;BME280;42155;53.096;23.226;2022-10-16T07:15:26;100364.75;;;13.98;70.95
56241;BME280;42155;53.096;23.226;2022-10-16T07:17:26;100368.25;;;13.99;70.50
56241;BME280;42155;53.096;23.226;2022-10-16T07:19:27;100364.75;;;13.98;70.55
56241;BME280;42155;53.096;23.226;2022-10-16T07:21:29;100365.59;;;13.99;71.08
56241;BME280;42155;53.096;23.226;2022-10-16T07:23:30;100360.25;;;13.99;71.53
56241;BME280;42155;53.096;23.226;2022-10-16T07:25:30;100345.91;;;13.90;71.39
56241;BME280;42155;53.096;23.226;2022-10-16T07:27:31;100361.94;;;14.00;71.46
56241;BME280;42155;53.096;23.226;2022-10-16T07:29:31;100366.56;;;13.98;71.50
56241;BME280;42155;53.096;23.226;2022-10-16T07:31:32;100333.66;;;13.78;71.66
56241;BME280;42155;53.096;23.226;2022-10-16T07:33:33;100358.41;;;13.90;71.69
56241;BME280;42155;53.096;23.226;2022-10-16T07:35:34;100363.28;;;13.85;72.09
56241;BME280;42155;53.096;23.226;2022-10-16T07:37:34;100339.50;;;13.72;72.33
56241;BME280;42155;53.096;23.226;2022-10-16T07:39:35;100367.66;;;13.86;72.53
56241;BME280;42155;53.096;23.226;2022-10-16T07:41:35;100367.66;;;13.86;72.86
56241;BME280;42155;53.096;23.226;2022-10-16T07:43:36;100369.91;;;13.90;72.72
56241;BME280;42155;53.096;23.226;2022-10-16T07:45:37;100375.97;;;13.92;72.63
56241;BME280;42155;53.096;23.226;2022-10-16T07:47:37;100371.22;;;13.96;73.05
56241;BME280;42155;53.096;23.226;2022-10-16T07:49:37;100372.59;;;14.00;72.93
56241;BME280;42155;53.096;23.226;2022-10-16T07:51:38;100377.44;;;14.06;72.89
56241;BME280;42155;53.096;23.226;2022-10-16T07:53:38;100376.63;;;14.15;72.83
56241;BME280;42155;53.096;23.226;2022-10-16T07:55:39;100373.13;;;14.24;73.10
56241;BME280;42155;53.096;23.226;2022-10-16T07:57:39;100358.06;;;14.23;73.04
56241;BME280;42155;53.096;23.226;2022-10-16T07:59:40;100371.47;;;14.43;72.31
56241;BME280;42155;53.096;23.226;2022-10-16T08:01:40;100367.03;;;14.53;72.39
56241;BME280;42155;53.096;23.226;2022-10-16T08:03:49;100375.47;;;14.58;72.15
56241;BME280;42155;53.096;23.226;2022-10-16T08:05:49;100367.19;;;14.61;71.70
56241;BME280;42155;53.096;23.226;2022-10-16T08:07:50;100370.28;;;14.66;71.84
56241;BME280;42155;53.096;23.226;2022-10-16T08:09:50;100353.53;;;14.64;71.78
56241;BME280;42155;53.096;23.226;2022-10-16T08:11:50;100388.69;;;14.89;71.35
56241;BME280;42155;53.096;23.226;2022-10-16T08:13:51;100384.19;;;14.99;71.08
56241;BME280;42155;53.096;23.226;2022-10-16T08:15:51;100370.00;;;14.98;70.89
56241;BME280;42155;53.096;23.226;2022-10-16T08:17:58;100384.03;;;15.10;70.84
56241;BME280;42155;53.096;23.226;2022-10-16T08:19:59;100371.06;;;15.15;70.83
56241;BME280;42155;53.096;23.226;2022-10-16T08:21:59;100369.25;;;15.25;70.40
56241;BME280;42155;53.096;23.226;2022-10-16T08:23:59;100365.16;;;15.31;70.14
56241;BME280;42155;53.096;23.226;2022-10-16T08:26:07;100355.88;;;15.35;70.13
56241;BME280;42155;53.096;23.226;2022-10-16T08:28:09;100365.94;;;15.51;69.99
56241;BME280;42155;53.096;23.226;2022-10-16T08:30:11;100374.25;;;15.67;69.30
56241;BME280;42155;53.096;23.226;2022-10-16T08:32:12;100372.88;;;15.91;69.21
56241;BME280;42155;53.096;23.226;2022-10-16T08:34:12;100375.84;;;16.15;68.38
56241;BME280;42155;53.096;23.226;2022-10-16T08:36:13;100384.72;;;16.43;67.87
56241;BME280;42155;53.096;23.226;2022-10-16T08:38:14;100371.34;;;16.61;67.02
56241;BME280;42155;53.096;23.226;2022-10-16T08:40:51;100367.03;;;16.68;66.92
56241;BME280;42155;53.096;23.226;2022-10-16T08:45:19;100361.38;;;17.07;65.99
56241;BME280;42155;53.096;23.226;2022-10-16T08:49:35;100348.44;;;17.28;65.45
56241;BME280;42155;53.096;23.226;2022-10-16T08:51:37;100364.25;;;17.31;65.45
56241;BME280;42155;53.096;23.226;2022-10-16T08:53:49;100359.94;;;17.39;65.14
56241;BME280;42155;53.096;23.226;2022-10-16T08:55:51;100358.94;;;17.40;64.61
56241;BME280;42155;53.096;23.226;2022-10-16T08:57:52;100286.50;;;16.88;65.07
56241;BME280;42155;53.096;23.226;2022-10-16T08:59:53;100349.91;;;17.15;65.34
56241;BME280;42155;53.096;23.226;2022-10-16T09:01:53;100356.69;;;17.09;65.44
56241;BME280;42155;53.096;23.226;2022-10-16T09:10:25;100360.47;;;17.16;65.36
56241;BME280;42155;53.096;23.226;2022-10-16T09:12:53;100372.56;;;17.20;65.16
56241;BME280;42155;53.096;23.226;2022-10-16T09:19:51;100346.66;;;17.37;64.94
56241;BME280;42155;53.096;23.226;2022-10-16T09:21:54;100365.94;;;17.59;64.15
56241;BME280;42155;53.096;23.226;2022-10-16T09:23:59;100364.44;;;17.64;64.23
56241;BME280;42155;53.096;23.226;2022-10-16T09:26:01;100360.13;;;17.71;64.62
56241;BME280;42155;53.096;23.226;2022-10-16T09:28:02;100356.00;;;17.77;63.80
56241;BME280;42155;53.096;23.226;2022-10-16T09:30:14;100363.22;;;17.76;64.06
56241;BME280;42155;53.096;23.226;2022-10-16T09:32:19;100361.06;;;17.80;64.01
56241;BME280;42155;53.096;23.226;2022-10-16T09:34:36;100347.16;;;17.85;63.72
56241;BME280;42155;53.096;23.226;2022-10-16T09:36:43;100347.66;;;17.88;63.42
56241;BME280;42155;53.096;23.226;2022-10-16T09:38:44;100315.91;;;17.75;63.89
56241;BME280;42155;53.096;23.226;2022-10-16T09:40:45;100346.84;;;17.96;63.50
56241;BME280;42155;53.096;23.226;2022-10-16T09:42:45;100338.97;;;17.94;63.38
56241;BME280;42155;53.096;23.226;2022-10-16T09:44:52;100357.94;;;18.01;63.57
56241;BME280;42155;53.096;23.226;2022-10-16T09:49:18;100362.31;;;18.02;63.30
56241;BME280;42155;53.096;23.226;2022-10-16T09:51:28;100360.47;;;18.02;63.54
56241;BME280;42155;53.096;23.226;2022-10-16T09:54:11;100314.72;;;17.78;63.58
56241;BME280;42155;53.096;23.226;2022-10-16T09:56:23;100363.03;;;18.12;63.43
56241;BME280;42155;53.096;23.226;2022-10-16T09:58:23;100362.56;;;18.17;63.48
56241;BME280;42155;53.096;23.226;2022-10-16T10:00:24;100357.84;;;18.19;63.23
56241;BME280;42155;53.096;23.226;2022-10-16T10:02:34;100358.69;;;18.19;63.51
56241;BME280;42155;53.096;23.226;2022-10-16T10:04:41;100355.81;;;18.21;63.34
56241;BME280;42155;53.096;23.226;2022-10-16T10:06:46;100354.50;;;18.25;63.18
56241;BME280;42155;53.096;23.226;2022-10-16T10:08:55;100350.97;;;18.24;63.12
56241;BME280;42155;53.096;23.226;2022-10-16T10:10:55;100353.84;;;18.23;62.98
56241;BME280;42155;53.096;23.226;2022-10-16T10:12:56;100356.34;;;18.24;63.22
56241;BME280;42155;53.096;23.226;2022-10-16T10:15:02;100363.09;;;18.28;63.42
56241;BME280;42155;53.096;23.226;2022-10-16T10:17:20;100358.91;;;18.26;63.21
56241;BME280;42155;53.096;23.226;2022-10-16T10:19:22;100354.50;;;18.17;63.74
56241;BME280;42155;53.096;23.226;2022-10-16T10:21:23;100306.03;;;17.84;63.58
56241;BME280;42155;53.096;23.226;2022-10-16T10:23:25;100347.25;;;18.09;63.72
56241;BME280;42155;53.096;23.226;2022-10-16T10:25:40;100323.16;;;17.91;63.87
56241;BME280;42155;53.096;23.226;2022-10-16T10:35:22;100353.59;;;18.58;62.74
56241;BME280;42155;53.096;23.226;2022-10-16T10:37:28;100356.78;;;18.54;62.88
56241;BME280;42155;53.096;23.226;2022-10-16T10:39:45;100344.47;;;18.43;63.27
56241;BME280;42155;53.096;23.226;2022-10-16T10:50:56;100333.72;;;18.43;63.28
56241;BME280;42155;53.096;23.226;2022-10-16T11:00:15;100344.66;;;18.50;63.49
56241;BME280;42155;53.096;23.226;2022-10-16T11:04:45;100336.13;;;18.63;63.32
56241;BME280;42155;53.096;23.226;2022-10-16T11:06:58;100331.41;;;18.65;63.24
56241;BME280;42155;53.096;23.226;2022-10-16T11:09:18;100322.88;;;18.69;62.85
56241;BME280;42155;53.096;23.226;2022-10-16T11:11:24;100315.31;;;18.73;62.81
56241;BME280;42155;53.096;23.226;2022-10-16T11:13:32;100302.56;;;18.83;62.82
56241;BME280;42155;53.096;23.226;2022-10-16T11:15:37;100314.47;;;18.97;62.61
56241;BME280;42155;53.096;23.226;2022-10-16T11:17:46;100327.22;;;18.95;62.29
56241;BME280;42155;53.096;23.226;2022-10-16T11:19:54;100328.09;;;18.87;62.77
56241;BME280;42155;53.096;23.226;2022-10-16T11:22:03;100318.50;;;18.85;62.62
56241;BME280;42155;53.096;23.226;2022-10-16T11:24:14;100331.94;;;18.85;61.99
56241;BME280;42155;53.096;23.226;2022-10-16T11:26:26;100332.13;;;18.83;62.18
56241;BME280;42155;53.096;23.226;2022-10-16T11:28:42;100332.44;;;18.80;62.03